首页
METAR-TAF:

METAR-TAF

机场 :

Fritzlar, 德国

纬度: 51-07N, 经度: 009-17E, 海拔: 172米

当前天气观测

该预报发布于30分钟前的15:50 UTC
风速6节,风向西南
温度 11°C
湿度 87%
气压 993 hPa
能見度: 5000
散云层高于1200英尺
少量云层高于1500英尺, 积雨云.
多云层高于2500英尺
阵雨

METAR: ETHF 051550Z 23006KT 5000 SHRA SCT012 FEW015CB BKN025 11/09 Q0993 WHT

时间: 18:20 (16:20 UTC)

预报

该预报发布于18小时和8分钟前的22:12 UTC
预报有效从04日的 23点(UTC)到 05日的 08点(UTC)
风速3节,风向多变
能见度10公里或以上
散云层高于3000英尺
多云层高于6000英尺
短暂存在
从 04日的 23点(UTC)到 05日的 02点(UTC)
风速7节,风向西北
能見度: 3000
散云层高于500英尺
多云层高于1000英尺

TAF: ETHF 042212Z 0423/0508 VRB03KT 9999 NSW SCT030 BKN060 TEMPO 0423/0502 31007KT 3000 RA SCT005 BKN010

超过4000个机场的气象观测和天气预报(METAR&TAF报告)。

可查询的气象台以黄色和红色小点在地图上表示。

将鼠标移到小点上方,可查看气象台名称。

然后点击查看天气观测和预报。

如需切换地图:点击带黑十字的绿色按钮放大地图;点击带横线的绿色按钮缩小地图;或者点击绿色箭头查看邻近地区的地图。


METAR-TAF: